Time;durP1;ratioP1;P1;durP2;ratioP2;P2;SDS_P1;SDS_P2;PMS_P1;PMS_P2;Temp;Humidity;BMP_temperature;BMP_pressure;BME280_temperature;BME280_humidity;BME280_pressure;Samples;Min_cycle;Max_cycle;Signal;HPM_P1;HPM_P2
2022/07/23 00:00:00;;;;;;;;;28.50;27.25;;;;;22.75;64.10;101129.00;4879782;29;46214;-63
2022/07/23 00:02:25;;;;;;;;;26.50;25.75;;;;;22.93;64.04;101143.47;4880024;29;45335;-62
2022/07/23 00:04:51;;;;;;;;;27.75;25.00;;;;;22.93;63.88;101140.69;4879791;29;45400;-62
2022/07/23 00:07:16;;;;;;;;;32.50;27.25;;;;;22.93;64.01;101146.28;4879845;29;45451;-62
2022/07/23 00:09:42;;;;;;;;;25.25;24.00;;;;;22.91;64.48;101143.75;4882951;29;46515;-63
2022/07/23 00:12:07;;;;;;;;;33.50;27.25;;;;;22.98;64.02;101146.25;4878199;29;45441;-62
2022/07/23 00:14:33;;;;;;;;;28.00;26.00;;;;;23.02;63.96;101148.16;4834617;29;45543;-61
2022/07/23 00:16:58;;;;;;;;;30.50;25.75;;;;;22.88;64.03;101116.34;4847296;29;45548;-61
2022/07/23 00:19:24;;;;;;;;;25.50;25.50;;;;;23.08;63.87;101146.22;4847234;29;46073;-62
2022/07/23 00:21:50;;;;;;;;;28.75;28.00;;;;;23.12;63.64;101147.28;4864528;29;45383;-61
2022/07/23 00:24:15;;;;;;;;;27.50;26.50;;;;;22.97;63.40;101119.38;4847108;29;45469;-63
2022/07/23 00:26:40;;;;;;;;;32.50;30.50;;;;;23.14;64.38;101150.66;4863262;29;45408;-62
2022/07/23 00:29:06;;;;;;;;;31.50;29.50;;;;;23.11;64.67;101137.22;4863977;29;46364;-63
2022/07/23 00:31:32;;;;;;;;;35.00;30.00;;;;;23.05;65.10;101124.38;4863142;29;45405;-63
2022/07/23 00:33:57;;;;;;;;;39.50;32.50;;;;;23.13;65.49;101143.38;4863980;29;45399;-63
2022/07/23 00:36:23;;;;;;;;;40.25;33.50;;;;;23.12;65.30;101140.88;4864628;29;45497;-62
2022/07/23 00:38:49;;;;;;;;;38.50;33.50;;;;;23.08;65.98;101139.75;4847390;29;45796;-62
2022/07/23 00:41:15;;;;;;;;;38.00;32.20;;;;;23.04;65.83;101133.91;4862700;29;45357;-62
2022/07/23 00:43:41;;;;;;;;;35.25;31.25;;;;;23.05;65.98;101131.94;4847369;29;45276;-61
2022/07/23 00:46:06;;;;;;;;;39.00;32.40;;;;;23.07;66.10;101136.13;4863288;29;45536;-63
2022/07/23 00:48:32;;;;;;;;;37.75;31.25;;;;;22.86;66.15;101113.00;4846920;29;45554;-63
2022/07/23 00:50:57;;;;;;;;;42.50;34.50;;;;;23.01;66.53;101138.09;4847009;29;45367;-62
2022/07/23 00:53:23;;;;;;;;;41.25;34.25;;;;;22.86;66.46;101104.59;4863912;29;45381;-62
2022/07/23 00:55:49;;;;;;;;;35.50;33.25;;;;;22.98;66.63;101135.03;4847674;29;45437;-62
2022/07/23 00:58:15;;;;;;;;;30.00;26.00;;;;;22.95;66.28;101127.25;4843304;29;46908;-63
2022/07/23 01:00:40;;;;;;;;;37.20;33.40;;;;;22.99;66.60;101137.56;4866138;29;45426;-63
2022/07/23 01:03:06;;;;;;;;;39.75;33.50;;;;;22.95;66.28;101127.25;4882610;29;45364;-63
2022/07/23 01:05:31;;;;;;;;;39.00;33.75;;;;;22.88;66.02;101119.97;4882359;29;45390;-63
2022/07/23 01:07:57;;;;;;;;;37.50;32.50;;;;;22.97;65.64;101120.22;4849708;29;45986;-63
2022/07/23 01:10:31;;;;;;;;;35.50;31.75;;;;;22.98;66.25;101133.09;4865565;29;45501;-62
2022/07/23 01:13:04;;;;;;;;;35.60;32.20;;;;;22.96;66.26;101140.09;4836804;29;45277;-62
2022/07/23 01:15:30;;;;;;;;;37.00;30.80;;;;;22.81;66.57;101136.25;4866466;29;45318;-61
2022/07/23 01:17:56;;;;;;;;;37.60;33.00;;;;;22.80;66.86;101134.56;4865033;29;45398;-61
2022/07/23 01:20:22;;;;;;;;;40.50;32.75;;;;;22.70;67.26;101134.59;4864644;29;45439;-63
2022/07/23 01:22:47;;;;;;;;;31.25;29.00;;;;;22.72;67.55;101146.34;4865056;29;45734;-62
2022/07/23 01:25:13;;;;;;;;;31.50;29.25;;;;;22.72;67.23;101136.00;4849781;29;45575;-63
2022/07/23 01:27:38;;;;;;;;;40.75;32.75;;;;;22.75;67.06;101140.19;4881935;29;46391;-62
2022/07/23 01:30:04;;;;;;;;;28.75;27.00;;;;;22.72;66.83;101127.59;4864767;29;45398;-62
2022/07/23 01:32:30;;;;;;;;;38.40;33.00;;;;;22.71;66.90;101125.06;4864883;29;45343;-63
2022/07/23 01:34:56;;;;;;;;;33.75;32.75;;;;;22.71;66.95;101125.94;4865022;29;45529;-63
2022/07/23 01:37:21;;;;;;;;;37.60;32.80;;;;;22.78;66.83;101139.59;4881978;29;45704;-63
2022/07/23 01:39:47;;;;;;;;;32.50;30.75;;;;;22.77;66.28;101137.09;4864955;29;45293;-62
2022/07/23 01:42:12;;;;;;;;;40.25;32.75;;;;;22.77;66.63;101137.94;4865014;29;45362;-63
2022/07/23 01:44:38;;;;;;;;;30.00;28.75;;;;;22.74;66.48;101132.91;4881791;29;45676;-62
2022/07/23 01:47:03;;;;;;;;;31.00;28.00;;;;;22.71;66.42;101123.13;4881474;29;45752;-63
2022/07/23 01:49:29;;;;;;;;;30.75;29.50;;;;;22.54;66.55;101105.84;4864411;29;45702;-63
2022/07/23 01:52:00;;;;;;;;;37.50;32.25;;;;;22.70;66.52;101129.00;4864812;29;45463;-62
2022/07/23 01:54:29;;;;;;;;;35.40;31.80;;;;;22.53;67.00;101107.81;4865821;29;45408;-62
2022/07/23 01:56:55;;;;;;;;;38.40;34.60;;;;;22.60;66.51;101116.75;4864755;29;46609;-62
2022/07/23 01:59:21;;;;;;;;;40.75;33.00;;;;;22.54;66.45;101117.88;4864229;29;45508;-63
2022/07/23 02:01:46;;;;;;;;;32.60;27.80;;;;;22.56;66.60;101120.38;4864671;29;45411;-61
2022/07/23 02:04:12;;;;;;;;;33.25;30.75;;;;;22.56;66.61;101120.38;4847801;28;45477;-62
2022/07/23 02:06:37;;;;;;;;;33.25;29.75;;;;;22.53;66.48;101120.94;4881294;29;46402;-62
2022/07/23 02:09:03;;;;;;;;;32.25;29.50;;;;;22.39;67.01;101104.72;4881305;29;45415;-62
2022/07/23 02:11:28;;;;;;;;;30.50;27.00;;;;;22.47;66.60;101120.09;4881662;29;45360;-61
2022/07/23 02:13:54;;;;;;;;;27.25;25.25;;;;;22.34;67.24;101096.34;4881697;29;45354;-62
2022/07/23 02:16:19;;;;;;;;;29.00;27.50;;;;;22.51;66.69;101124.03;4864876;29;46182;-61
2022/07/23 02:18:46;;;;;;;;;28.00;26.75;;;;;22.51;66.45;101115.63;4881133;29;45283;-61
2022/07/23 02:21:12;;;;;;;;;32.40;25.60;;;;;22.53;66.52;101126.53;4864598;29;45333;-62
2022/07/23 02:23:37;;;;;;;;;30.25;24.75;;;;;22.48;66.65;101127.38;4881701;29;45514;-63
2022/07/23 02:26:03;;;;;;;;;31.75;25.00;;;;;22.47;66.29;101134.09;4881082;29;45561;-62
2022/07/23 02:28:28;;;;;;;;;22.25;20.50;;;;;22.36;66.18;101101.66;4848764;29;45363;-62
2022/07/23 02:30:54;;;;;;;;;27.50;24.00;;;;;22.34;66.46;101115.94;4848077;29;45410;-62
2022/07/23 02:33:19;;;;;;;;;27.75;23.25;;;;;22.46;65.99;101129.59;4864762;29;45490;-63
2022/07/23 02:35:45;;;;;;;;;24.00;22.75;;;;;22.45;66.41;101134.34;4864320;29;46011;-62
2022/07/23 02:38:10;;;;;;;;;30.75;30.50;;;;;22.45;66.09;101137.16;4864210;29;45482;-62
2022/07/23 02:40:36;;;;;;;;;32.75;29.75;;;;;22.43;66.20;101136.63;4864048;29;45445;-63
2022/07/23 02:43:01;;;;;;;;;25.00;25.00;;;;;22.28;66.28;101125.44;4880998;29;45189;-63
2022/07/23 02:45:27;;;;;;;;;27.00;25.75;;;;;22.43;65.96;101145.00;4880293;29;45817;-63
2022/07/23 02:47:52;;;;;;;;;21.75;21.75;;;;;22.42;66.35;101145.28;4880997;29;45320;-62
2022/07/23 02:50:18;;;;;;;;;26.25;22.25;;;;;22.42;66.20;101142.47;4880763;29;45350;-62
2022/07/23 02:52:43;;;;;;;;;26.50;23.50;;;;;22.38;65.52;101139.41;4880950;29;45700;-62
2022/07/23 02:55:09;;;;;;;;;18.75;18.75;;;;;22.42;65.57;101150.88;4863251;29;45821;-62
2022/07/23 02:57:34;;;;;;;;;22.25;20.25;;;;;22.37;65.51;101143.34;4863837;29;45618;-62
2022/07/23 03:00:00;;;;;;;;;28.50;26.50;;;;;22.40;65.38;101150.31;4848233;29;45391;-62
2022/07/23 03:02:25;;;;;;;;;24.50;22.00;;;;;22.37;65.31;101146.13;4880813;29;45555;-62
2022/07/23 03:04:51;;;;;;;;;27.25;25.50;;;;;22.28;65.53;101145.84;4863548;29;46840;-62
2022/07/23 03:07:17;;;;;;;;;21.00;16.80;;;;;22.25;65.67;101143.59;4880368;29;45442;-63
2022/07/23 03:09:43;;;;;;;;;24.25;22.50;;;;;21.88;65.99;101088.88;4864113;29;45392;-62
2022/07/23 03:12:08;;;;;;;;;28.25;26.00;;;;;22.33;65.91;101159.84;4864023;29;45711;-61
2022/07/23 03:14:34;;;;;;;;;27.00;26.00;;;;;22.35;66.00;101159.53;4863950;29;46732;-62
2022/07/23 03:17:00;;;;;;;;;25.25;25.25;;;;;22.34;66.26;101171.84;4880858;29;45405;-62
2022/07/23 03:19:26;;;;;;;;;28.75;27.75;;;;;22.26;65.87;101166.81;4880440;29;45393;-61
2022/07/23 03:21:51;;;;;;;;;30.60;28.80;;;;;22.24;66.30;101153.13;4863997;29;45530;-62
2022/07/23 03:24:19;;;;;;;;;28.25;27.75;;;;;22.29;67.17;101169.91;4863734;29;45844;-62
2022/07/23 03:26:45;;;;;;;;;27.60;26.40;;;;;21.77;66.40;101083.28;4880180;29;45460;-62
2022/07/23 03:29:10;;;;;;;;;29.00;24.25;;;;;22.32;66.95;101166.53;4863797;29;45435;-62
2022/07/23 03:31:36;;;;;;;;;31.25;29.75;;;;;22.29;67.07;101171.84;4863807;29;45496;-61
2022/07/23 03:34:01;;;;;;;;;38.50;32.00;;;;;22.33;67.30;101179.41;4863599;29;46501;-62
2022/07/23 03:36:27;;;;;;;;;31.75;28.75;;;;;22.27;67.47;101172.16;4880067;29;45394;-63
2022/07/23 03:38:53;;;;;;;;;34.00;31.00;;;;;22.31;67.37;101181.63;4880491;29;45374;-62
2022/07/23 03:41:19;;;;;;;;;32.00;29.50;;;;;22.34;67.31;101180.22;4848200;29;45619;-62
2022/07/23 03:43:44;;;;;;;;;38.80;30.40;;;;;22.35;67.36;101181.91;4882776;29;46110;-63
2022/07/23 03:46:10;;;;;;;;;33.25;30.25;;;;;22.33;67.18;101182.19;4866514;29;45414;-63
2022/07/23 03:48:35;;;;;;;;;34.00;28.50;;;;;22.30;66.85;101179.13;4866960;29;45422;-63
2022/07/23 03:51:01;;;;;;;;;28.50;27.50;;;;;22.32;67.02;101183.28;4866816;29;45646;-63
2022/07/23 03:53:26;;;;;;;;;31.25;28.75;;;;;22.25;67.29;101170.75;4866168;29;47131;-63
2022/07/23 03:55:52;;;;;;;;;30.00;28.00;;;;;22.27;67.50;101191.72;4883330;29;45281;-63
2022/07/23 03:58:17;;;;;;;;;32.75;29.50;;;;;22.18;67.35;101185.00;4866781;29;45322;-61
2022/07/23 04:00:43;;;;;;;;;27.50;26.25;;;;;22.11;67.39;101182.50;4851431;29;45271;-62
2022/07/23 04:03:08;;;;;;;;;25.75;24.25;;;;;22.18;67.30;101191.44;4866350;29;45756;-63
2022/07/23 04:05:34;;;;;;;;;29.50;27.75;;;;;22.18;67.23;101190.56;4883252;29;45332;-62
2022/07/23 04:07:59;;;;;;;;;29.75;27.00;;;;;22.12;66.80;101197.28;4866265;29;45404;-62
2022/07/23 04:10:25;;;;;;;;;20.75;17.75;;;;;22.07;66.91;101181.38;4883214;29;45529;-62
2022/07/23 04:12:50;;;;;;;;;24.00;23.00;;;;;22.12;66.42;101200.09;4865952;29;45425;-62
2022/07/23 04:15:15;;;;;;;;;23.50;21.00;;;;;22.00;66.58;101187.25;4866077;29;45553;-62
2022/07/23 04:17:41;;;;;;;;;15.00;14.00;;;;;22.05;66.68;101200.38;4866288;29;45337;-62
2022/07/23 04:20:07;;;;;;;;;25.00;21.25;;;;;21.95;66.34;101192.81;4850461;29;45712;-62
2022/07/23 04:22:32;;;;;;;;;22.75;22.75;;;;;21.95;66.52;101204.00;4882705;29;46376;-62
2022/07/23 04:24:58;;;;;;;;;23.00;23.00;;;;;21.92;66.51;101198.94;4865977;29;45407;-63
2022/07/23 04:27:24;;;;;;;;;26.75;21.75;;;;;21.96;66.61;101193.66;4883095;29;45422;-61
2022/07/23 04:29:49;;;;;;;;;27.00;25.60;;;;;22.02;66.57;101195.31;4882934;29;45362;-63
2022/07/23 04:32:15;;;;;;;;;30.50;26.75;;;;;22.03;66.36;101203.44;4882404;29;46723;-62
2022/07/23 04:34:40;;;;;;;;;29.50;23.75;;;;;21.86;66.59;101180.50;4865645;29;45388;-62
2022/07/23 04:37:05;;;;;;;;;25.25;23.75;;;;;21.94;66.43;101191.97;4865490;29;45457;-64
2022/07/23 04:39:31;;;;;;;;;27.75;26.00;;;;;21.98;66.55;101195.03;4866306;29;45351;-63
2022/07/23 04:41:56;;;;;;;;;25.00;22.50;;;;;22.00;66.36;101191.97;4834363;29;46456;-63
2022/07/23 04:44:22;;;;;;;;;30.00;28.00;;;;;21.89;66.45;101168.78;4882461;29;45280;-63
2022/07/23 04:46:47;;;;;;;;;23.25;20.00;;;;;21.99;66.73;101202.31;4865325;29;45473;-63
2022/07/23 04:49:13;;;;;;;;;24.50;21.00;;;;;21.99;66.56;101196.72;4882974;29;45328;-62
2022/07/23 04:51:38;;;;;;;;;28.50;24.75;;;;;21.97;66.28;101203.72;4834491;29;47826;-63
2022/07/23 04:54:04;;;;;;;;;25.50;23.75;;;;;21.86;65.78;101181.34;4881719;29;45149;-62
2022/07/23 04:56:29;;;;;;;;;20.50;18.50;;;;;21.62;65.72;101139.94;4882169;29;45390;-61
2022/07/23 04:58:55;;;;;;;;;23.25;19.25;;;;;21.96;65.83;101200.09;4882449;29;45567;-62
2022/07/23 05:01:20;;;;;;;;;25.75;22.75;;;;;22.04;65.65;101212.69;4882191;29;46544;-62
2022/07/23 05:03:48;;;;;;;;;24.50;21.25;;;;;22.04;65.57;101207.09;4865280;29;45406;-63
2022/07/23 05:06:13;;;;;;;;;23.00;21.60;;;;;22.00;65.33;101214.34;4865655;29;45465;-63
2022/07/23 05:08:47;;;;;;;;;23.25;21.00;;;;;22.01;65.61;101219.66;4865739;29;45534;-63
2022/07/23 05:11:12;;;;;;;;;28.60;23.60;;;;;22.03;65.59;101216.56;4865015;29;46646;-63
2022/07/23 05:13:38;;;;;;;;;24.00;22.75;;;;;22.04;65.68;101210.69;4882105;29;45583;-62
2022/07/23 05:16:03;;;;;;;;;25.25;24.00;;;;;22.07;65.38;101209.31;4865378;29;45448;-62
2022/07/23 05:18:29;;;;;;;;;21.25;20.25;;;;;22.15;65.17;101216.31;4865361;29;45742;-63
2022/07/23 05:20:54;;;;;;;;;25.50;24.00;;;;;22.15;65.24;101217.13;4864998;29;46400;-63
2022/07/23 05:23:20;;;;;;;;;27.50;19.75;;;;;22.09;65.33;101203.44;4881828;29;45400;-62
2022/07/23 05:25:45;;;;;;;;;26.00;25.75;;;;;22.09;65.16;101211.84;4881939;29;45366;-62
2022/07/23 05:28:11;;;;;;;;;23.25;22.00;;;;;22.11;65.06;101217.97;4882265;29;45359;-63
2022/07/23 05:30:36;;;;;;;;;21.75;19.50;;;;;21.91;65.33;101194.50;4865067;29;46387;-63
2022/07/23 05:33:02;;;;;;;;;30.50;23.50;;;;;22.07;65.10;101215.75;4849165;29;45362;-61
2022/07/23 05:35:28;;;;;;;;;22.00;19.75;;;;;22.11;65.20;101215.19;4864874;29;45331;-63
2022/07/23 05:37:53;;;;;;;;;26.00;22.75;;;;;22.08;65.23;101208.19;4865264;29;45375;-62
2022/07/23 05:40:19;;;;;;;;;21.00;19.00;;;;;22.08;65.45;101208.19;4881715;29;46888;-63
2022/07/23 05:42:44;;;;;;;;;26.75;23.00;;;;;21.89;65.27;101179.97;4864526;29;45283;-62
2022/07/23 05:45:10;;;;;;;;;27.00;26.25;;;;;22.03;65.19;101205.38;4881433;29;45489;-63
2022/07/23 05:47:46;;;;;;;;;26.75;23.50;;;;;22.10;65.17;101217.16;4865049;29;45302;-62
2022/07/23 05:50:11;;;;;;;;;23.80;22.60;;;;;21.91;65.34;101184.16;4864851;29;45985;-63
2022/07/23 05:52:37;;;;;;;;;25.25;24.75;;;;;22.07;65.10;101212.97;4864689;29;45443;-62
2022/07/23 05:55:03;;;;;;;;;29.00;26.50;;;;;22.08;65.27;101224.97;4849301;29;45779;-62
2022/07/23 05:57:28;;;;;;;;;28.00;25.00;;;;;22.05;65.29;101228.31;4881386;29;45429;-63
2022/07/23 05:59:54;;;;;;;;;30.75;24.75;;;;;22.01;65.71;101233.63;4843967;29;46656;-63
2022/07/23 06:02:19;;;;;;;;;32.00;27.50;;;;;21.88;65.96;101211.81;4862049;29;45393;-63
2022/07/23 06:04:45;;;;;;;;;32.75;28.75;;;;;22.10;65.80;101230.28;4878260;29;45383;-62
2022/07/23 06:07:11;;;;;;;;;43.40;31.20;;;;;22.07;65.81;101224.13;4879569;29;45517;-62
2022/07/23 06:09:36;;;;;;;;;33.75;30.75;;;;;22.19;65.60;101232.25;4847824;29;46606;-62
2022/07/23 06:12:02;;;;;;;;;37.25;31.25;;;;;22.20;65.71;101236.69;4880138;29;45439;-63
2022/07/23 06:14:28;;;;;;;;;32.00;30.75;;;;;22.18;65.51;101232.50;4881426;29;45457;-63
2022/07/23 06:16:53;;;;;;;;;32.50;28.75;;;;;22.16;65.61;101223.56;4864911;29;45444;-62
2022/07/23 06:19:19;;;;;;;;;38.75;31.25;;;;;22.19;65.67;101234.19;4881217;29;45666;-62
2022/07/23 06:21:44;;;;;;;;;40.75;33.50;;;;;22.23;65.73;101251.22;4864103;29;45375;-61
2022/07/23 06:24:10;;;;;;;;;39.25;33.25;;;;;22.13;65.64;101241.72;4881379;29;45419;-63
2022/07/23 06:26:35;;;;;;;;;44.25;36.00;;;;;22.02;65.96;101228.88;4849194;29;45494;-63
2022/07/23 06:29:01;;;;;;;;;33.50;31.75;;;;;22.18;65.91;101255.72;4864410;29;45520;-63
2022/07/23 06:31:26;;;;;;;;;34.25;30.50;;;;;22.04;65.86;101230.25;4881085;29;45494;-62
2022/07/23 06:33:52;;;;;;;;;37.50;32.50;;;;;22.03;66.11;101236.97;4881456;29;45272;-63
2022/07/23 06:36:17;;;;;;;;;38.25;32.00;;;;;22.04;66.05;101261.00;4864440;29;45569;-62
2022/07/23 06:38:43;;;;;;;;;41.50;34.00;;;;;22.03;66.34;101261.28;4848709;29;45567;-63
2022/07/23 06:41:08;;;;;;;;;44.50;31.75;;;;;22.01;66.53;101261.56;4864239;29;45411;-62
2022/07/23 06:43:34;;;;;;;;;45.00;36.75;;;;;21.99;66.43;101262.97;4880732;29;45312;-62
2022/07/23 06:45:59;;;;;;;;;38.75;34.00;;;;;22.03;66.46;101272.44;4864746;29;45331;-63
2022/07/23 06:48:25;;;;;;;;;47.25;37.75;;;;;21.87;66.48;101246.47;4863645;29;45459;-62
2022/07/23 06:50:52;;;;;;;;;53.50;39.50;;;;;22.04;66.44;101277.78;4880833;29;45336;-62
2022/07/23 06:53:18;;;;;;;;;49.60;37.20;;;;;22.06;66.43;101264.38;4880662;29;45471;-61
2022/07/23 06:55:43;;;;;;;;;55.00;41.80;;;;;22.09;66.24;101267.72;4864078;29;45332;-62
2022/07/23 06:58:09;;;;;;;;;48.00;38.00;;;;;22.17;65.91;101264.38;4863574;29;45718;-64
2022/07/23 07:00:35;;;;;;;;;46.60;35.60;;;;;22.24;65.96;101266.91;4830565;29;45947;-61
2022/07/23 07:03:01;;;;;;;;;46.60;35.00;;;;;22.20;65.83;101258.25;4848312;29;45336;-63
2022/07/23 07:05:27;;;;;;;;;44.50;34.50;;;;;22.27;65.82;101270.00;4880858;29;45544;-63
2022/07/23 07:07:54;;;;;;;;;43.75;33.50;;;;;22.16;65.84;101254.31;4863309;29;46935;-62
2022/07/23 07:10:20;;;;;;;;;54.60;42.00;;;;;22.31;65.80;101282.28;4863374;29;45467;-62
2022/07/23 07:12:45;;;;;;;;;40.25;33.50;;;;;22.26;65.58;101273.06;4880276;29;45416;-63
2022/07/23 07:15:11;;;;;;;;;51.50;38.25;;;;;22.39;65.71;101283.69;4863922;29;45376;-62
2022/07/23 07:17:37;;;;;;;;;45.50;34.75;;;;;22.43;65.26;101289.56;4879815;29;46628;-61
2022/07/23 07:20:03;;;;;;;;;47.75;37.00;;;;;22.38;65.36;101283.97;4879952;29;45390;-62
2022/07/23 07:22:29;;;;;;;;;46.60;38.00;;;;;22.21;65.60;101285.91;4847899;29;45446;-62
2022/07/23 07:24:54;;;;;;;;;50.50;38.50;;;;;22.25;65.71;101294.56;4863445;29;45595;-63
2022/07/23 07:27:20;;;;;;;;;48.00;37.50;;;;;22.35;65.55;101310.50;4847953;29;46590;-62
2022/07/23 07:29:45;;;;;;;;;48.00;39.00;;;;;22.36;65.49;101300.19;4863156;29;45445;-62
2022/07/23 07:32:11;;;;;;;;;52.50;39.50;;;;;22.34;65.74;101303.25;4863446;29;45311;-62
2022/07/23 07:34:36;;;;;;;;;47.00;40.25;;;;;22.42;65.33;101316.66;4880655;29;45505;-62
2022/07/23 07:37:02;;;;;;;;;46.75;39.00;;;;;22.29;65.33;101289.25;4879980;29;46488;-62
2022/07/23 07:39:27;;;;;;;;;47.25;37.25;;;;;22.50;65.38;101312.50;4879863;29;45316;-61
2022/07/23 07:41:53;;;;;;;;;49.75;39.50;;;;;22.46;65.30;101305.75;4880074;29;45338;-62
2022/07/23 07:44:19;;;;;;;;;53.50;41.00;;;;;22.24;65.27;101284.50;4863273;29;45364;-61
2022/07/23 07:46:44;;;;;;;;;46.50;37.75;;;;;22.42;65.36;101315.84;4879879;29;46733;-63
2022/07/23 07:49:10;;;;;;;;;40.00;32.75;;;;;22.30;65.62;101290.97;4862855;29;45490;-63
2022/07/23 07:51:35;;;;;;;;;44.25;37.75;;;;;22.50;65.31;101314.47;4880062;29;45458;-62
2022/07/23 07:54:01;;;;;;;;;43.75;36.00;;;;;22.43;65.76;101315.56;4879892;29;45454;-64
2022/07/23 07:56:26;;;;;;;;;46.75;37.50;;;;;22.29;65.68;101295.69;4862550;29;46559;-63
2022/07/23 07:58:52;;;;;;;;;46.00;37.75;;;;;22.44;65.25;101328.44;4879649;29;45589;-63
2022/07/23 08:01:19;;;;;;;;;49.50;38.00;;;;;22.42;65.48;101316.66;4856572;28;45378;-62
2022/07/23 08:03:45;;;;;;;;;47.00;38.00;;;;;22.47;65.65;101324.25;4863080;29;45376;-61
2022/07/23 08:06:10;;;;;;;;;49.00;36.75;;;;;22.38;65.35;101297.94;4847092;29;47958;-61
2022/07/23 08:08:36;;;;;;;;;42.25;35.50;;;;;22.59;65.06;101324.84;4862948;29;45404;-62
2022/07/23 08:11:01;;;;;;;;;50.00;38.00;;;;;22.63;65.00;101327.06;4879727;29;45351;-62
2022/07/23 08:13:27;;;;;;;;;49.25;38.25;;;;;22.68;65.03;101329.88;4863100;29;45682;-62
2022/07/23 08:15:55;;;;;;;;;47.50;39.00;;;;;22.77;64.31;101332.94;4856885;29;46372;-62
2022/07/23 08:18:21;;;;;;;;;48.40;38.40;;;;;22.75;64.58;101333.22;4879420;29;45397;-61
2022/07/23 08:20:46;;;;;;;;;38.75;33.50;;;;;22.64;64.36;101307.22;4878189;29;45401;-62
2022/07/23 08:23:12;;;;;;;;;47.50;37.75;;;;;22.73;64.87;101316.72;4879696;29;45518;-62
2022/07/23 08:25:39;;;;;;;;;42.00;35.00;;;;;22.84;64.21;101323.13;4862613;29;46483;-62
2022/07/23 08:28:06;;;;;;;;;49.60;39.20;;;;;22.87;63.79;101321.72;4877909;29;45340;-62
2022/07/23 08:30:32;;;;;;;;;42.00;35.40;;;;;22.88;63.72;101301.88;4865479;29;45297;-62
2022/07/23 08:33:00;;;;;;;;;36.75;32.50;;;;;23.05;63.69;101328.69;4881194;29;45470;-62
2022/07/23 08:35:36;;;;;;;;;44.60;35.80;;;;;23.24;62.98;101342.97;4865506;29;46177;-62
2022/07/23 08:38:03;;;;;;;;;47.40;38.40;;;;;23.29;62.93;101342.94;4882527;29;45462;-62
2022/07/23 08:40:32;;;;;;;;;46.00;37.60;;;;;23.22;62.53;101344.34;4881326;29;45417;-62
2022/07/23 08:42:59;;;;;;;;;42.60;35.80;;;;;23.26;63.06;101353.88;4866321;29;45610;-62
2022/07/23 08:45:25;;;;;;;;;42.40;35.00;;;;;23.22;62.76;101353.56;4880500;29;48088;-63
2022/07/23 08:47:52;;;;;;;;;46.40;36.00;;;;;23.03;62.99;101339.34;4881168;29;45466;-63
2022/07/23 08:50:18;;;;;;;;;47.80;38.60;;;;;22.98;62.47;101347.75;4881302;29;45414;-63
2022/07/23 08:52:44;;;;;;;;;45.25;36.25;;;;;23.07;62.34;101360.06;4865346;29;45360;-63
2022/07/23 08:55:09;;;;;;;;;50.25;37.75;;;;;23.08;62.76;101358.09;4881029;29;46376;-62
2022/07/23 08:57:35;;;;;;;;;35.50;32.25;;;;;23.22;63.06;101363.97;4881012;29;45366;-62
2022/07/23 09:00:01;;;;;;;;;46.20;37.20;;;;;23.26;62.41;101360.31;4865587;29;45356;-62
2022/07/23 09:02:26;;;;;;;;;44.25;34.50;;;;;23.38;62.67;101364.78;4824696;29;45795;-61
2022/07/23 09:04:52;;;;;;;;;43.00;36.00;;;;;23.45;61.52;101372.88;4830912;29;45486;-62
2022/07/23 09:07:18;;;;;;;;;39.50;35.00;;;;;23.50;61.74;101373.72;4846721;29;45449;-62
2022/07/23 09:09:43;;;;;;;;;41.75;35.00;;;;;23.42;61.61;101358.34;4846391;29;45402;-61
2022/07/23 09:12:09;;;;;;;;;39.00;33.75;;;;;23.51;60.96;101364.19;4863467;29;45462;-63
2022/07/23 09:14:47;;;;;;;;;47.80;36.40;;;;;23.53;60.50;101356.34;4846335;29;45615;-62
2022/07/23 09:17:14;;;;;;;;;41.20;35.40;;;;;23.62;60.02;101364.13;4862394;29;45829;-61
2022/07/23 09:19:40;;;;;;;;;39.80;33.00;;;;;23.67;59.92;101350.97;4863303;29;45359;-62
2022/07/23 09:22:29;;;;;;;;;34.80;31.60;;;;;23.75;59.45;101357.94;4831186;29;45404;-61
2022/07/23 09:25:14;;;;;;;;;38.40;33.00;;;;;23.83;59.41;101356.50;4832042;29;45530;-63
2022/07/23 09:27:55;;;;;;;;;40.80;35.80;;;;;23.96;59.84;101360.66;4832398;29;45295;-62
2022/07/23 09:30:25;;;;;;;;;36.60;31.40;;;;;23.66;59.45;101307.28;4846291;29;45408;-63
2022/07/23 09:33:10;;;;;;;;;42.40;33.60;;;;;24.03;58.77;101358.38;4846620;29;45450;-62
2022/07/23 09:35:51;;;;;;;;;41.20;33.60;;;;;24.04;58.97;101365.66;4845971;29;46509;-64
2022/07/23 09:38:18;;;;;;;;;40.60;33.80;;;;;24.09;58.83;101359.19;4861491;29;45335;-63
2022/07/23 09:40:43;;;;;;;;;38.40;32.40;;;;;24.12;58.72;101357.78;4812533;29;45375;-66
2022/07/23 09:43:09;;;;;;;;;44.75;36.25;;;;;24.15;58.40;101354.38;4828423;29;45537;-66
2022/07/23 09:45:35;;;;;;;;;40.25;35.25;;;;;24.19;58.71;101352.69;4841275;29;45476;-64
2022/07/23 09:48:13;;;;;;;;;40.25;35.00;;;;;24.29;58.28;101349.00;4868099;29;45521;-69
2022/07/23 09:50:41;;;;;;;;;37.60;31.80;;;;;24.34;57.77;101354.56;4844275;29;45756;-61
2022/07/23 09:53:06;;;;;;;;;37.80;32.80;;;;;24.26;57.83;101338.38;4872818;29;45374;-65
2022/07/23 09:55:36;;;;;;;;;42.50;34.00;;;;;24.51;57.20;101356.97;4860113;29;45734;-64
2022/07/23 09:58:03;;;;;;;;;41.80;36.20;;;;;24.37;58.18;101337.16;4845816;29;45629;-65
2022/07/23 10:00:29;;;;;;;;;43.00;35.80;;;;;24.57;57.45;101360.56;4841883;29;45911;-66
2022/07/23 10:02:54;;;;;;;;;45.40;34.80;;;;;24.36;57.34;101321.44;4820693;29;45873;-70
2022/07/23 10:05:20;;;;;;;;;45.00;35.00;;;;;24.18;57.50;101323.81;4859178;29;45637;-66
2022/07/23 10:07:46;;;;;;;;;40.75;34.75;;;;;24.36;57.98;101353.16;4875391;29;45552;-65
2022/07/23 10:10:11;;;;;;;;;38.75;33.50;;;;;24.08;57.85;101327.50;4858888;29;45733;-69
2022/07/23 10:15:05;;;;;;;;;39.00;33.75;;;;;24.13;58.87;101349.09;4875591;29;46266;-64
2022/07/23 10:17:31;;;;;;;;;46.80;36.80;;;;;24.19;58.59;101338.69;4857292;29;45774;-64
2022/07/23 10:19:56;;;;;;;;;40.50;33.75;;;;;24.27;58.50;101351.25;4858149;29;45499;-68
2022/07/23 10:22:25;;;;;;;;;46.00;37.00;;;;;24.21;58.21;101331.66;4858341;29;45425;-66
2022/07/23 10:25:18;;;;;;;;;40.60;35.60;;;;;24.32;58.07;101356.81;4873874;29;46688;-66
2022/07/23 10:28:16;;;;;;;;;36.00;32.80;;;;;24.42;58.19;101359.56;4824833;29;45739;-67
2022/07/23 10:31:05;;;;;;;;;36.40;31.60;;;;;24.58;58.01;101353.81;4852492;29;45464;-65
2022/07/23 10:33:56;;;;;;;;;34.80;30.80;;;;;24.68;58.05;101358.50;4841978;29;45459;-64
2022/07/23 10:36:44;;;;;;;;;41.40;34.80;;;;;24.67;57.41;101354.88;4858072;29;46229;-66
2022/07/23 10:39:30;;;;;;;;;41.20;34.80;;;;;24.64;57.13;101342.28;4859623;29;46048;-69
2022/07/23 10:42:13;;;;;;;;;39.40;32.60;;;;;24.53;57.63;101335.06;4844340;29;45438;-65
2022/07/23 10:44:40;;;;;;;;;42.40;35.20;;;;;24.60;57.67;101349.59;4860091;29;45589;-65
2022/07/23 10:49:50;;;;;;;;;40.00;33.60;;;;;24.62;57.84;101371.75;4876794;29;45801;-68
2022/07/23 10:52:28;;;;;;;;;39.25;34.50;;;;;24.61;57.49;101362.50;4839328;29;45618;-65
2022/07/23 10:55:17;;;;;;;;;37.40;32.60;;;;;24.69;57.36;101369.44;4840973;29;45401;-64
2022/07/23 10:57:51;;;;;;;;;38.60;31.80;;;;;24.69;57.65;101377.88;4857334;29;46414;-65
2022/07/23 11:00:24;;;;;;;;;32.60;31.40;;;;;24.75;57.41;101378.66;4849974;29;45399;-65
2022/07/23 11:02:51;;;;;;;;;36.20;32.80;;;;;24.74;57.29;101376.97;4840992;29;45397;-66
2022/07/23 11:05:38;;;;;;;;;46.00;33.40;;;;;24.54;57.50;101376.00;4858065;29;45481;-65
2022/07/23 11:08:11;;;;;;;;;41.80;34.20;;;;;24.44;58.08;101367.69;4861556;29;46581;-64
2022/07/23 11:11:04;;;;;;;;;28.20;24.60;;;;;24.35;58.16;101392.69;4859769;29;45786;-67
2022/07/23 11:13:38;;;;;;;;;33.40;31.80;;;;;24.38;58.50;101400.53;4875506;29;45726;-65